sensor_id;sensor_type;location;lat;lon;timestamp;temperature;humidity
44111;DHT22;29774;52.664;5.074;2024-01-25T00:02:03;10.70;75.60
44111;DHT22;29774;52.664;5.074;2024-01-25T00:04:28;10.90;76.30
44111;DHT22;29774;52.664;5.074;2024-01-25T00:06:54;10.70;74.90
44111;DHT22;29774;52.664;5.074;2024-01-25T00:09:20;10.60;75.00
44111;DHT22;29774;52.664;5.074;2024-01-25T00:11:45;10.70;76.40
44111;DHT22;29774;52.664;5.074;2024-01-25T00:14:11;10.80;76.00
44111;DHT22;29774;52.664;5.074;2024-01-25T00:16:40;11.00;76.60
44111;DHT22;29774;52.664;5.074;2024-01-25T00:19:07;11.00;75.20
44111;DHT22;29774;52.664;5.074;2024-01-25T00:21:32;10.80;75.40
44111;DHT22;29774;52.664;5.074;2024-01-25T00:23:58;11.00;75.80
44111;DHT22;29774;52.664;5.074;2024-01-25T00:26:24;10.70;75.00
44111;DHT22;29774;52.664;5.074;2024-01-25T00:28:49;10.80;76.50
44111;DHT22;29774;52.664;5.074;2024-01-25T00:31:15;10.90;75.90
44111;DHT22;29774;52.664;5.074;2024-01-25T00:33:40;10.50;74.30
44111;DHT22;29774;52.664;5.074;2024-01-25T00:36:06;10.60;76.10
44111;DHT22;29774;52.664;5.074;2024-01-25T00:38:32;10.50;75.20
44111;DHT22;29774;52.664;5.074;2024-01-25T00:40:58;10.50;76.20
44111;DHT22;29774;52.664;5.074;2024-01-25T00:43:24;10.60;76.60
44111;DHT22;29774;52.664;5.074;2024-01-25T00:45:50;10.70;75.90
44111;DHT22;29774;52.664;5.074;2024-01-25T00:48:16;10.60;76.10
44111;DHT22;29774;52.664;5.074;2024-01-25T00:50:42;10.50;76.20
44111;DHT22;29774;52.664;5.074;2024-01-25T00:53:08;10.40;76.20
44111;DHT22;29774;52.664;5.074;2024-01-25T00:55:34;10.50;76.30
44111;DHT22;29774;52.664;5.074;2024-01-25T00:57:59;10.70;76.70
44111;DHT22;29774;52.664;5.074;2024-01-25T01:00:26;10.60;75.90
44111;DHT22;29774;52.664;5.074;2024-01-25T01:02:53;10.40;75.50
44111;DHT22;29774;52.664;5.074;2024-01-25T01:05:19;10.40;75.90
44111;DHT22;29774;52.664;5.074;2024-01-25T01:07:45;10.30;75.90
44111;DHT22;29774;52.664;5.074;2024-01-25T01:10:11;10.30;76.00
44111;DHT22;29774;52.664;5.074;2024-01-25T01:12:37;10.50;77.00
44111;DHT22;29774;52.664;5.074;2024-01-25T01:15:03;10.40;76.00
44111;DHT22;29774;52.664;5.074;2024-01-25T01:17:29;10.30;76.10
44111;DHT22;29774;52.664;5.074;2024-01-25T01:19:54;10.20;75.90
44111;DHT22;29774;52.664;5.074;2024-01-25T01:22:20;10.20;76.10
44111;DHT22;29774;52.664;5.074;2024-01-25T01:24:46;10.10;76.80
44111;DHT22;29774;52.664;5.074;2024-01-25T01:27:11;9.90;76.40
44111;DHT22;29774;52.664;5.074;2024-01-25T01:29:37;9.90;76.60
44111;DHT22;29774;52.664;5.074;2024-01-25T01:32:03;9.90;76.50
44111;DHT22;29774;52.664;5.074;2024-01-25T01:34:29;10.30;78.40
44111;DHT22;29774;52.664;5.074;2024-01-25T01:36:54;10.20;76.80
44111;DHT22;29774;52.664;5.074;2024-01-25T01:39:20;10.20;77.00
44111;DHT22;29774;52.664;5.074;2024-01-25T01:41:48;10.20;76.40
44111;DHT22;29774;52.664;5.074;2024-01-25T01:44:15;10.20;77.20
44111;DHT22;29774;52.664;5.074;2024-01-25T01:46:40;10.30;77.10
44111;DHT22;29774;52.664;5.074;2024-01-25T01:49:08;10.10;76.30
44111;DHT22;29774;52.664;5.074;2024-01-25T01:51:36;10.10;76.30
44111;DHT22;29774;52.664;5.074;2024-01-25T01:54:02;10.00;76.70
44111;DHT22;29774;52.664;5.074;2024-01-25T01:56:28;10.10;77.10
44111;DHT22;29774;52.664;5.074;2024-01-25T01:59:05;10.00;76.80
44111;DHT22;29774;52.664;5.074;2024-01-25T02:01:31;10.00;76.90
44111;DHT22;29774;52.664;5.074;2024-01-25T02:03:57;9.70;76.00
44111;DHT22;29774;52.664;5.074;2024-01-25T02:06:24;9.70;76.90
44111;DHT22;29774;52.664;5.074;2024-01-25T02:08:50;9.70;76.70
44111;DHT22;29774;52.664;5.074;2024-01-25T02:11:19;10.20;78.70
44111;DHT22;29774;52.664;5.074;2024-01-25T02:13:45;9.90;76.20
44111;DHT22;29774;52.664;5.074;2024-01-25T02:16:11;9.70;76.70
44111;DHT22;29774;52.664;5.074;2024-01-25T02:18:36;9.80;77.50
44111;DHT22;29774;52.664;5.074;2024-01-25T02:21:03;10.00;77.30
44111;DHT22;29774;52.664;5.074;2024-01-25T02:23:29;9.80;76.30
44111;DHT22;29774;52.664;5.074;2024-01-25T02:25:54;10.10;77.80
44111;DHT22;29774;52.664;5.074;2024-01-25T02:28:20;10.20;77.50
44111;DHT22;29774;52.664;5.074;2024-01-25T02:30:46;10.20;77.00
44111;DHT22;29774;52.664;5.074;2024-01-25T02:33:12;10.20;76.60
44111;DHT22;29774;52.664;5.074;2024-01-25T02:35:37;9.80;75.60
44111;DHT22;29774;52.664;5.074;2024-01-25T02:38:03;9.90;76.80
44111;DHT22;29774;52.664;5.074;2024-01-25T02:40:28;9.80;76.30
44111;DHT22;29774;52.664;5.074;2024-01-25T02:42:54;9.70;76.60
44111;DHT22;29774;52.664;5.074;2024-01-25T02:45:21;9.90;76.40
44111;DHT22;29774;52.664;5.074;2024-01-25T02:47:47;9.50;76.20
44111;DHT22;29774;52.664;5.074;2024-01-25T02:50:12;9.60;77.10
44111;DHT22;29774;52.664;5.074;2024-01-25T02:52:38;9.40;76.60
44111;DHT22;29774;52.664;5.074;2024-01-25T02:55:04;9.10;75.90
44111;DHT22;29774;52.664;5.074;2024-01-25T02:57:30;8.80;75.90
44111;DHT22;29774;52.664;5.074;2024-01-25T02:59:56;8.80;76.80
44111;DHT22;29774;52.664;5.074;2024-01-25T03:02:22;9.20;78.40
44111;DHT22;29774;52.664;5.074;2024-01-25T03:04:48;9.40;78.00
44111;DHT22;29774;52.664;5.074;2024-01-25T03:07:14;9.20;76.90
44111;DHT22;29774;52.664;5.074;2024-01-25T03:09:39;9.10;76.90
44111;DHT22;29774;52.664;5.074;2024-01-25T03:12:05;9.10;77.30
44111;DHT22;29774;52.664;5.074;2024-01-25T03:14:31;8.70;76.50
44111;DHT22;29774;52.664;5.074;2024-01-25T03:16:56;8.60;77.10
44111;DHT22;29774;52.664;5.074;2024-01-25T03:19:26;8.70;77.40
44111;DHT22;29774;52.664;5.074;2024-01-25T03:21:52;8.40;77.10
44111;DHT22;29774;52.664;5.074;2024-01-25T03:24:17;8.30;77.20
44111;DHT22;29774;52.664;5.074;2024-01-25T03:26:43;8.20;77.60
44111;DHT22;29774;52.664;5.074;2024-01-25T03:29:09;8.00;77.60
44111;DHT22;29774;52.664;5.074;2024-01-25T03:31:34;8.20;78.50
44111;DHT22;29774;52.664;5.074;2024-01-25T03:34:01;8.20;78.00
44111;DHT22;29774;52.664;5.074;2024-01-25T03:36:27;8.10;78.00
44111;DHT22;29774;52.664;5.074;2024-01-25T03:38:53;8.10;78.30
44111;DHT22;29774;52.664;5.074;2024-01-25T03:41:18;8.10;78.50
44111;DHT22;29774;52.664;5.074;2024-01-25T03:43:44;8.00;78.30
44111;DHT22;29774;52.664;5.074;2024-01-25T03:46:11;7.80;78.20
44111;DHT22;29774;52.664;5.074;2024-01-25T03:48:37;7.80;78.70
44111;DHT22;29774;52.664;5.074;2024-01-25T03:51:02;7.70;78.70
44111;DHT22;29774;52.664;5.074;2024-01-25T03:53:28;7.50;78.90
44111;DHT22;29774;52.664;5.074;2024-01-25T03:55:54;7.40;78.90
44111;DHT22;29774;52.664;5.074;2024-01-25T03:58:19;7.40;79.30
44111;DHT22;29774;52.664;5.074;2024-01-25T04:00:45;7.20;79.10
44111;DHT22;29774;52.664;5.074;2024-01-25T04:03:11;7.00;79.20
44111;DHT22;29774;52.664;5.074;2024-01-25T04:05:37;6.80;79.30
44111;DHT22;29774;52.664;5.074;2024-01-25T04:08:05;6.70;79.50
44111;DHT22;29774;52.664;5.074;2024-01-25T04:10:30;6.50;79.70
44111;DHT22;29774;52.664;5.074;2024-01-25T04:12:56;6.50;79.80
44111;DHT22;29774;52.664;5.074;2024-01-25T04:15:22;6.40;79.90
44111;DHT22;29774;52.664;5.074;2024-01-25T04:17:47;6.20;80.00
44111;DHT22;29774;52.664;5.074;2024-01-25T04:20:14;6.20;80.60
44111;DHT22;29774;52.664;5.074;2024-01-25T04:22:39;6.10;80.50
44111;DHT22;29774;52.664;5.074;2024-01-25T04:25:05;6.00;80.70
44111;DHT22;29774;52.664;5.074;2024-01-25T04:27:31;6.00;80.80
44111;DHT22;29774;52.664;5.074;2024-01-25T04:29:56;6.00;80.80
44111;DHT22;29774;52.664;5.074;2024-01-25T04:32:22;5.90;80.80
44111;DHT22;29774;52.664;5.074;2024-01-25T04:34:48;5.80;80.60
44111;DHT22;29774;52.664;5.074;2024-01-25T04:37:14;5.70;80.70
44111;DHT22;29774;52.664;5.074;2024-01-25T04:39:40;5.70;80.60
44111;DHT22;29774;52.664;5.074;2024-01-25T04:42:05;5.60;80.60
44111;DHT22;29774;52.664;5.074;2024-01-25T04:44:31;5.50;80.70
44111;DHT22;29774;52.664;5.074;2024-01-25T04:46:57;5.50;80.90
44111;DHT22;29774;52.664;5.074;2024-01-25T04:49:23;5.40;80.60
44111;DHT22;29774;52.664;5.074;2024-01-25T04:51:49;5.40;80.60
44111;DHT22;29774;52.664;5.074;2024-01-25T04:54:15;5.40;80.60
44111;DHT22;29774;52.664;5.074;2024-01-25T04:56:41;5.30;80.60
44111;DHT22;29774;52.664;5.074;2024-01-25T04:59:07;5.30;80.50
44111;DHT22;29774;52.664;5.074;2024-01-25T05:01:33;5.20;80.40
44111;DHT22;29774;52.664;5.074;2024-01-25T05:03:59;5.20;80.40
44111;DHT22;29774;52.664;5.074;2024-01-25T05:06:24;5.20;80.60
44111;DHT22;29774;52.664;5.074;2024-01-25T05:08:50;5.10;80.70
44111;DHT22;29774;52.664;5.074;2024-01-25T05:11:16;5.20;80.80
44111;DHT22;29774;52.664;5.074;2024-01-25T05:13:41;5.10;80.80
44111;DHT22;29774;52.664;5.074;2024-01-25T05:16:07;5.00;80.80
44111;DHT22;29774;52.664;5.074;2024-01-25T05:18:32;5.00;80.90
44111;DHT22;29774;52.664;5.074;2024-01-25T05:20:58;5.10;80.90
44111;DHT22;29774;52.664;5.074;2024-01-25T05:23:24;5.10;80.90
44111;DHT22;29774;52.664;5.074;2024-01-25T05:25:50;5.10;81.00
44111;DHT22;29774;52.664;5.074;2024-01-25T05:28:15;5.10;81.10
44111;DHT22;29774;52.664;5.074;2024-01-25T05:30:41;5.00;81.10
44111;DHT22;29774;52.664;5.074;2024-01-25T05:33:06;5.10;81.20
44111;DHT22;29774;52.664;5.074;2024-01-25T05:35:32;5.00;81.20
44111;DHT22;29774;52.664;5.074;2024-01-25T05:38:00;5.00;81.20
44111;DHT22;29774;52.664;5.074;2024-01-25T05:40:25;4.90;81.20
44111;DHT22;29774;52.664;5.074;2024-01-25T05:42:51;4.90;81.20
44111;DHT22;29774;52.664;5.074;2024-01-25T05:45:17;4.90;81.20
44111;DHT22;29774;52.664;5.074;2024-01-25T05:47:45;4.80;81.20
44111;DHT22;29774;52.664;5.074;2024-01-25T05:50:11;4.70;81.10
44111;DHT22;29774;52.664;5.074;2024-01-25T05:52:37;4.70;81.20
44111;DHT22;29774;52.664;5.074;2024-01-25T05:55:04;4.70;81.30
44111;DHT22;29774;52.664;5.074;2024-01-25T05:57:31;4.70;81.20
44111;DHT22;29774;52.664;5.074;2024-01-25T05:59:57;4.70;81.30
44111;DHT22;29774;52.664;5.074;2024-01-25T06:02:22;4.80;81.50
44111;DHT22;29774;52.664;5.074;2024-01-25T06:04:48;4.70;81.40
44111;DHT22;29774;52.664;5.074;2024-01-25T06:07:13;4.70;81.50
44111;DHT22;29774;52.664;5.074;2024-01-25T06:09:39;4.70;81.50
44111;DHT22;29774;52.664;5.074;2024-01-25T06:12:05;4.70;81.50
44111;DHT22;29774;52.664;5.074;2024-01-25T06:14:31;4.60;81.50
44111;DHT22;29774;52.664;5.074;2024-01-25T06:16:56;4.60;81.50
44111;DHT22;29774;52.664;5.074;2024-01-25T06:19:22;4.60;81.60
44111;DHT22;29774;52.664;5.074;2024-01-25T06:21:48;4.60;81.80
44111;DHT22;29774;52.664;5.074;2024-01-25T06:24:14;4.70;82.00
44111;DHT22;29774;52.664;5.074;2024-01-25T06:26:39;4.70;82.30
44111;DHT22;29774;52.664;5.074;2024-01-25T06:29:05;4.70;82.30
44111;DHT22;29774;52.664;5.074;2024-01-25T06:31:31;4.80;82.40
44111;DHT22;29774;52.664;5.074;2024-01-25T06:33:57;4.90;82.50
44111;DHT22;29774;52.664;5.074;2024-01-25T06:36:23;4.90;82.70
44111;DHT22;29774;52.664;5.074;2024-01-25T06:38:48;5.10;82.80
44111;DHT22;29774;52.664;5.074;2024-01-25T06:41:14;5.20;82.70
44111;DHT22;29774;52.664;5.074;2024-01-25T06:43:41;5.20;82.60
44111;DHT22;29774;52.664;5.074;2024-01-25T06:46:07;5.30;82.60
44111;DHT22;29774;52.664;5.074;2024-01-25T06:48:33;5.20;82.40
44111;DHT22;29774;52.664;5.074;2024-01-25T06:50:59;5.20;82.40
44111;DHT22;29774;52.664;5.074;2024-01-25T06:53:26;5.20;82.60
44111;DHT22;29774;52.664;5.074;2024-01-25T06:55:51;5.10;82.70
44111;DHT22;29774;52.664;5.074;2024-01-25T06:58:17;5.20;82.80
44111;DHT22;29774;52.664;5.074;2024-01-25T07:00:43;5.20;82.90
44111;DHT22;29774;52.664;5.074;2024-01-25T07:03:10;5.20;82.90
44111;DHT22;29774;52.664;5.074;2024-01-25T07:05:36;5.20;82.90
44111;DHT22;29774;52.664;5.074;2024-01-25T07:08:02;5.20;83.00
44111;DHT22;29774;52.664;5.074;2024-01-25T07:10:28;5.10;83.00
44111;DHT22;29774;52.664;5.074;2024-01-25T07:12:54;5.10;83.10
44111;DHT22;29774;52.664;5.074;2024-01-25T07:15:20;5.10;83.20
44111;DHT22;29774;52.664;5.074;2024-01-25T07:17:46;5.10;83.30
44111;DHT22;29774;52.664;5.074;2024-01-25T07:20:12;5.10;83.40
44111;DHT22;29774;52.664;5.074;2024-01-25T07:22:37;5.00;83.40
44111;DHT22;29774;52.664;5.074;2024-01-25T07:25:03;5.00;83.50
44111;DHT22;29774;52.664;5.074;2024-01-25T07:27:29;4.90;83.60
44111;DHT22;29774;52.664;5.074;2024-01-25T07:29:55;4.90;83.60
44111;DHT22;29774;52.664;5.074;2024-01-25T07:32:20;4.90;83.70
44111;DHT22;29774;52.664;5.074;2024-01-25T07:34:46;4.90;83.70
44111;DHT22;29774;52.664;5.074;2024-01-25T07:37:13;4.80;83.70
44111;DHT22;29774;52.664;5.074;2024-01-25T07:39:38;4.80;83.60
44111;DHT22;29774;52.664;5.074;2024-01-25T07:42:04;4.80;83.70
44111;DHT22;29774;52.664;5.074;2024-01-25T07:44:30;4.70;83.80
44111;DHT22;29774;52.664;5.074;2024-01-25T07:46:55;4.70;83.70
44111;DHT22;29774;52.664;5.074;2024-01-25T07:49:21;4.70;83.90
44111;DHT22;29774;52.664;5.074;2024-01-25T07:51:47;4.70;83.90
44111;DHT22;29774;52.664;5.074;2024-01-25T07:54:14;4.70;83.80
44111;DHT22;29774;52.664;5.074;2024-01-25T07:56:39;4.80;83.90
44111;DHT22;29774;52.664;5.074;2024-01-25T07:59:05;4.80;83.90
44111;DHT22;29774;52.664;5.074;2024-01-25T08:01:31;4.90;84.10
44111;DHT22;29774;52.664;5.074;2024-01-25T08:03:56;4.80;84.00
44111;DHT22;29774;52.664;5.074;2024-01-25T08:06:22;4.90;84.20
44111;DHT22;29774;52.664;5.074;2024-01-25T08:08:48;4.90;84.40
44111;DHT22;29774;52.664;5.074;2024-01-25T08:11:14;4.90;84.40
44111;DHT22;29774;52.664;5.074;2024-01-25T08:13:44;5.00;84.60
44111;DHT22;29774;52.664;5.074;2024-01-25T08:16:10;5.10;84.70
44111;DHT22;29774;52.664;5.074;2024-01-25T08:18:36;5.20;84.70
44111;DHT22;29774;52.664;5.074;2024-01-25T08:21:02;5.20;84.70
44111;DHT22;29774;52.664;5.074;2024-01-25T08:23:28;5.30;84.70
44111;DHT22;29774;52.664;5.074;2024-01-25T08:25:53;5.40;84.70
44111;DHT22;29774;52.664;5.074;2024-01-25T08:28:19;5.50;84.70
44111;DHT22;29774;52.664;5.074;2024-01-25T08:30:45;5.90;84.70
44111;DHT22;29774;52.664;5.074;2024-01-25T08:33:11;5.80;84.40
44111;DHT22;29774;52.664;5.074;2024-01-25T08:35:37;5.70;84.70
44111;DHT22;29774;52.664;5.074;2024-01-25T08:38:03;5.60;84.90
44111;DHT22;29774;52.664;5.074;2024-01-25T08:40:29;5.50;85.20
44111;DHT22;29774;52.664;5.074;2024-01-25T08:42:54;5.50;85.50
44111;DHT22;29774;52.664;5.074;2024-01-25T08:45:20;5.50;85.70
44111;DHT22;29774;52.664;5.074;2024-01-25T08:47:46;5.50;85.90
44111;DHT22;29774;52.664;5.074;2024-01-25T08:50:12;5.50;86.10
44111;DHT22;29774;52.664;5.074;2024-01-25T08:52:38;5.70;86.30
44111;DHT22;29774;52.664;5.074;2024-01-25T08:55:06;5.70;86.40
44111;DHT22;29774;52.664;5.074;2024-01-25T08:57:32;5.80;86.60
44111;DHT22;29774;52.664;5.074;2024-01-25T08:59:58;5.90;86.70
44111;DHT22;29774;52.664;5.074;2024-01-25T09:02:26;5.90;86.70
44111;DHT22;29774;52.664;5.074;2024-01-25T09:04:54;5.90;86.90
44111;DHT22;29774;52.664;5.074;2024-01-25T09:07:20;6.00;87.00
44111;DHT22;29774;52.664;5.074;2024-01-25T09:09:46;6.00;87.20
44111;DHT22;29774;52.664;5.074;2024-01-25T09:12:11;6.10;87.40
44111;DHT22;29774;52.664;5.074;2024-01-25T09:14:38;6.20;87.50
44111;DHT22;29774;52.664;5.074;2024-01-25T09:17:04;6.20;87.60
44111;DHT22;29774;52.664;5.074;2024-01-25T09:19:30;6.30;87.70
44111;DHT22;29774;52.664;5.074;2024-01-25T09:21:56;6.40;87.70
44111;DHT22;29774;52.664;5.074;2024-01-25T09:24:25;6.40;87.70
44111;DHT22;29774;52.664;5.074;2024-01-25T09:26:50;6.50;87.70
44111;DHT22;29774;52.664;5.074;2024-01-25T09:29:16;6.60;87.60
44111;DHT22;29774;52.664;5.074;2024-01-25T09:31:42;6.70;87.60
44111;DHT22;29774;52.664;5.074;2024-01-25T09:34:07;7.00;87.40
44111;DHT22;29774;52.664;5.074;2024-01-25T09:36:33;7.50;87.40
44111;DHT22;29774;52.664;5.074;2024-01-25T09:38:59;7.80;87.10
44111;DHT22;29774;52.664;5.074;2024-01-25T09:41:24;7.70;86.70
44111;DHT22;29774;52.664;5.074;2024-01-25T09:43:50;7.70;86.40
44111;DHT22;29774;52.664;5.074;2024-01-25T09:46:15;7.70;86.10
44111;DHT22;29774;52.664;5.074;2024-01-25T09:48:42;7.60;85.80
44111;DHT22;29774;52.664;5.074;2024-01-25T09:51:09;7.70;85.80
44111;DHT22;29774;52.664;5.074;2024-01-25T09:53:37;7.70;85.60
44111;DHT22;29774;52.664;5.074;2024-01-25T09:56:09;7.50;85.40
44111;DHT22;29774;52.664;5.074;2024-01-25T09:58:43;7.40;85.50
44111;DHT22;29774;52.664;5.074;2024-01-25T10:01:12;7.40;85.70
44111;DHT22;29774;52.664;5.074;2024-01-25T10:03:39;7.50;85.80
44111;DHT22;29774;52.664;5.074;2024-01-25T10:06:07;7.60;85.90
44111;DHT22;29774;52.664;5.074;2024-01-25T10:08:34;7.60;85.90
44111;DHT22;29774;52.664;5.074;2024-01-25T10:10:59;7.70;86.00
44111;DHT22;29774;52.664;5.074;2024-01-25T10:13:26;7.70;86.00
44111;DHT22;29774;52.664;5.074;2024-01-25T10:15:52;7.80;86.20
44111;DHT22;29774;52.664;5.074;2024-01-25T10:18:18;7.90;86.30
44111;DHT22;29774;52.664;5.074;2024-01-25T10:20:43;7.90;86.30
44111;DHT22;29774;52.664;5.074;2024-01-25T10:23:09;7.90;86.40
44111;DHT22;29774;52.664;5.074;2024-01-25T10:25:36;7.80;86.50
44111;DHT22;29774;52.664;5.074;2024-01-25T10:28:05;7.80;86.60
44111;DHT22;29774;52.664;5.074;2024-01-25T10:30:35;7.90;86.60
44111;DHT22;29774;52.664;5.074;2024-01-25T10:33:02;8.10;86.60
44111;DHT22;29774;52.664;5.074;2024-01-25T10:35:28;8.20;86.50
44111;DHT22;29774;52.664;5.074;2024-01-25T10:37:55;8.20;86.40
44111;DHT22;29774;52.664;5.074;2024-01-25T10:40:21;8.30;86.40
44111;DHT22;29774;52.664;5.074;2024-01-25T10:42:48;8.40;86.30
44111;DHT22;29774;52.664;5.074;2024-01-25T10:45:13;8.60;86.20
44111;DHT22;29774;52.664;5.074;2024-01-25T10:47:39;8.60;86.20
44111;DHT22;29774;52.664;5.074;2024-01-25T10:50:11;8.70;86.10
44111;DHT22;29774;52.664;5.074;2024-01-25T10:52:39;8.80;85.90
44111;DHT22;29774;52.664;5.074;2024-01-25T10:55:05;8.90;85.70
44111;DHT22;29774;52.664;5.074;2024-01-25T10:57:43;9.00;85.60
44111;DHT22;29774;52.664;5.074;2024-01-25T11:00:11;8.90;85.60
44111;DHT22;29774;52.664;5.074;2024-01-25T11:02:38;8.90;85.40
44111;DHT22;29774;52.664;5.074;2024-01-25T11:05:12;8.80;85.20
44111;DHT22;29774;52.664;5.074;2024-01-25T11:07:42;8.80;85.20
44111;DHT22;29774;52.664;5.074;2024-01-25T11:10:21;8.70;85.20
44111;DHT22;29774;52.664;5.074;2024-01-25T11:13:13;8.60;85.30
44111;DHT22;29774;52.664;5.074;2024-01-25T11:15:39;8.70;85.30
44111;DHT22;29774;52.664;5.074;2024-01-25T11:18:07;8.80;85.20
44111;DHT22;29774;52.664;5.074;2024-01-25T11:20:34;8.90;84.90
44111;DHT22;29774;52.664;5.074;2024-01-25T11:23:05;8.90;84.70
44111;DHT22;29774;52.664;5.074;2024-01-25T11:25:32;9.20;84.30
44111;DHT22;29774;52.664;5.074;2024-01-25T11:27:58;9.20;83.80
44111;DHT22;29774;52.664;5.074;2024-01-25T11:30:29;9.20;83.70
44111;DHT22;29774;52.664;5.074;2024-01-25T11:32:56;9.20;83.50
44111;DHT22;29774;52.664;5.074;2024-01-25T11:35:21;9.10;83.30
44111;DHT22;29774;52.664;5.074;2024-01-25T11:37:49;9.10;83.20
44111;DHT22;29774;52.664;5.074;2024-01-25T11:40:15;9.20;83.20
44111;DHT22;29774;52.664;5.074;2024-01-25T11:42:47;9.20;83.10
44111;DHT22;29774;52.664;5.074;2024-01-25T11:45:13;9.20;82.90
44111;DHT22;29774;52.664;5.074;2024-01-25T11:47:39;9.20;82.70
44111;DHT22;29774;52.664;5.074;2024-01-25T11:50:06;9.20;82.60
44111;DHT22;29774;52.664;5.074;2024-01-25T11:52:32;9.30;82.70
44111;DHT22;29774;52.664;5.074;2024-01-25T11:55:02;9.20;82.60
44111;DHT22;29774;52.664;5.074;2024-01-25T11:57:30;9.20;82.50
44111;DHT22;29774;52.664;5.074;2024-01-25T11:59:57;9.20;82.50
44111;DHT22;29774;52.664;5.074;2024-01-25T12:02:23;9.30;82.30
44111;DHT22;29774;52.664;5.074;2024-01-25T12:04:50;9.40;82.20
44111;DHT22;29774;52.664;5.074;2024-01-25T12:07:19;9.40;82.00
44111;DHT22;29774;52.664;5.074;2024-01-25T12:09:45;9.50;81.90
44111;DHT22;29774;52.664;5.074;2024-01-25T12:12:11;9.50;81.60
44111;DHT22;29774;52.664;5.074;2024-01-25T12:14:36;9.60;81.40
44111;DHT22;29774;52.664;5.074;2024-01-25T12:17:03;9.70;81.00
44111;DHT22;29774;52.664;5.074;2024-01-25T12:19:29;9.80;80.60
44111;DHT22;29774;52.664;5.074;2024-01-25T12:21:56;9.90;80.20
44111;DHT22;29774;52.664;5.074;2024-01-25T12:24:22;9.80;79.90
44111;DHT22;29774;52.664;5.074;2024-01-25T12:26:47;9.80;79.70
44111;DHT22;29774;52.664;5.074;2024-01-25T12:29:13;9.80;79.50
44111;DHT22;29774;52.664;5.074;2024-01-25T12:31:39;9.70;79.40
44111;DHT22;29774;52.664;5.074;2024-01-25T12:34:13;9.70;79.60
44111;DHT22;29774;52.664;5.074;2024-01-25T12:36:40;9.60;79.80
44111;DHT22;29774;52.664;5.074;2024-01-25T12:39:05;9.50;80.10
44111;DHT22;29774;52.664;5.074;2024-01-25T12:41:32;9.50;80.30
44111;DHT22;29774;52.664;5.074;2024-01-25T12:43:58;9.40;80.70
44111;DHT22;29774;52.664;5.074;2024-01-25T12:46:23;9.40;81.00
44111;DHT22;29774;52.664;5.074;2024-01-25T12:48:50;9.40;81.10
44111;DHT22;29774;52.664;5.074;2024-01-25T12:51:20;9.40;81.10
44111;DHT22;29774;52.664;5.074;2024-01-25T12:53:49;9.30;81.00
44111;DHT22;29774;52.664;5.074;2024-01-25T12:56:15;9.40;81.30
44111;DHT22;29774;52.664;5.074;2024-01-25T12:58:40;9.40;81.30
44111;DHT22;29774;52.664;5.074;2024-01-25T13:01:06;9.40;81.20
44111;DHT22;29774;52.664;5.074;2024-01-25T13:03:32;9.30;80.90
44111;DHT22;29774;52.664;5.074;2024-01-25T13:05:57;9.30;81.00
44111;DHT22;29774;52.664;5.074;2024-01-25T13:08:23;9.30;81.00
44111;DHT22;29774;52.664;5.074;2024-01-25T13:10:49;9.30;80.80
44111;DHT22;29774;52.664;5.074;2024-01-25T13:13:14;9.50;81.00
44111;DHT22;29774;52.664;5.074;2024-01-25T13:15:40;9.50;80.70
44111;DHT22;29774;52.664;5.074;2024-01-25T13:18:06;9.50;80.50
44111;DHT22;29774;52.664;5.074;2024-01-25T13:20:31;9.50;80.40
44111;DHT22;29774;52.664;5.074;2024-01-25T13:22:57;9.60;80.20
44111;DHT22;29774;52.664;5.074;2024-01-25T13:25:23;9.70;79.80
44111;DHT22;29774;52.664;5.074;2024-01-25T13:27:48;9.70;79.60
44111;DHT22;29774;52.664;5.074;2024-01-25T13:30:14;9.80;79.10
44111;DHT22;29774;52.664;5.074;2024-01-25T13:32:39;9.90;78.90
44111;DHT22;29774;52.664;5.074;2024-01-25T13:35:05;9.90;78.50
44111;DHT22;29774;52.664;5.074;2024-01-25T13:37:31;9.80;78.10
44111;DHT22;29774;52.664;5.074;2024-01-25T13:39:57;9.80;77.90
44111;DHT22;29774;52.664;5.074;2024-01-25T13:42:23;9.80;77.90
44111;DHT22;29774;52.664;5.074;2024-01-25T13:44:48;9.80;77.90
44111;DHT22;29774;52.664;5.074;2024-01-25T13:47:14;9.90;77.90
44111;DHT22;29774;52.664;5.074;2024-01-25T13:49:40;9.80;77.30
44111;DHT22;29774;52.664;5.074;2024-01-25T13:52:05;9.70;77.60
44111;DHT22;29774;52.664;5.074;2024-01-25T13:54:31;9.70;77.70
44111;DHT22;29774;52.664;5.074;2024-01-25T13:56:57;9.60;77.90
44111;DHT22;29774;52.664;5.074;2024-01-25T13:59:23;9.60;78.10
44111;DHT22;29774;52.664;5.074;2024-01-25T14:01:51;9.50;78.20
44111;DHT22;29774;52.664;5.074;2024-01-25T14:04:16;9.40;78.40
44111;DHT22;29774;52.664;5.074;2024-01-25T14:06:42;9.50;78.50
44111;DHT22;29774;52.664;5.074;2024-01-25T14:09:08;9.60;78.40
44111;DHT22;29774;52.664;5.074;2024-01-25T14:11:33;9.40;78.50
44111;DHT22;29774;52.664;5.074;2024-01-25T14:13:59;9.40;78.80
44111;DHT22;29774;52.664;5.074;2024-01-25T14:16:24;9.30;79.00
44111;DHT22;29774;52.664;5.074;2024-01-25T14:18:50;9.30;79.00
44111;DHT22;29774;52.664;5.074;2024-01-25T14:21:16;9.40;79.00
44111;DHT22;29774;52.664;5.074;2024-01-25T14:23:41;9.40;78.60
44111;DHT22;29774;52.664;5.074;2024-01-25T14:26:07;9.30;78.80
44111;DHT22;29774;52.664;5.074;2024-01-25T14:28:33;9.20;78.90
44111;DHT22;29774;52.664;5.074;2024-01-25T14:30:59;9.20;78.90
44111;DHT22;29774;52.664;5.074;2024-01-25T14:33:25;9.30;79.00
44111;DHT22;29774;52.664;5.074;2024-01-25T14:35:50;9.20;79.00
44111;DHT22;29774;52.664;5.074;2024-01-25T14:38:16;9.30;79.20
44111;DHT22;29774;52.664;5.074;2024-01-25T14:40:42;9.30;79.30
44111;DHT22;29774;52.664;5.074;2024-01-25T14:43:07;9.30;79.00
44111;DHT22;29774;52.664;5.074;2024-01-25T14:45:33;9.40;79.00
44111;DHT22;29774;52.664;5.074;2024-01-25T14:48:01;9.50;79.20
44111;DHT22;29774;52.664;5.074;2024-01-25T14:50:27;9.40;78.80
44111;DHT22;29774;52.664;5.074;2024-01-25T14:52:52;9.40;79.20
44111;DHT22;29774;52.664;5.074;2024-01-25T14:55:18;9.40;79.30
44111;DHT22;29774;52.664;5.074;2024-01-25T14:57:44;9.20;79.60
44111;DHT22;29774;52.664;5.074;2024-01-25T15:00:10;9.20;79.80
44111;DHT22;29774;52.664;5.074;2024-01-25T15:02:41;9.10;80.20
44111;DHT22;29774;52.664;5.074;2024-01-25T15:05:07;8.90;80.80
44111;DHT22;29774;52.664;5.074;2024-01-25T15:07:32;8.80;81.30
44111;DHT22;29774;52.664;5.074;2024-01-25T15:09:58;8.80;81.80
44111;DHT22;29774;52.664;5.074;2024-01-25T15:12:24;8.70;82.20
44111;DHT22;29774;52.664;5.074;2024-01-25T15:14:49;8.60;82.70
44111;DHT22;29774;52.664;5.074;2024-01-25T15:17:15;8.50;83.00
44111;DHT22;29774;52.664;5.074;2024-01-25T15:19:41;8.50;83.30
44111;DHT22;29774;52.664;5.074;2024-01-25T15:22:06;8.60;83.30
44111;DHT22;29774;52.664;5.074;2024-01-25T15:24:33;8.70;83.30
44111;DHT22;29774;52.664;5.074;2024-01-25T15:26:58;8.80;82.90
44111;DHT22;29774;52.664;5.074;2024-01-25T15:29:24;9.00;82.70
44111;DHT22;29774;52.664;5.074;2024-01-25T15:31:50;9.10;82.50
44111;DHT22;29774;52.664;5.074;2024-01-25T15:34:15;9.10;82.10
44111;DHT22;29774;52.664;5.074;2024-01-25T15:36:42;8.80;82.40
44111;DHT22;29774;52.664;5.074;2024-01-25T15:39:12;8.70;82.60